VTCIJ VOMM-VOMM
Flight info
| Callsign | VTCIJ |
|---|---|
| Flight time | 0h 19m |
| Altitude | 4500 |
| Route | DCT |
| Aircraft | DA42/L-S/C |
Departure
| Time | 2026-04-24 11:45 |
|---|---|
| Airport | Chennai International Airport (VOMM) |
Arrival
| Time | 2026-04-24 12:04 |
|---|---|
| Airport | Chennai International Airport (VOMM) |
| Time | Latitude | Longitude | Altitude | Speed | Heading |
|---|---|---|---|---|---|
| 2026-04-24 11:16 | 12.98511 | 80.16351 | 50 ft | 0 kts | 338° |
| 2026-04-24 11:27 | 12.98483 | 80.16364 | 50 ft | 10 kts | 164° |
| 2026-04-24 11:28 | 12.98461 | 80.16406 | 50 ft | 11 kts | 69° |
| 2026-04-24 11:28 | 12.98496 | 80.16476 | 50 ft | 3 kts | 15° |
| 2026-04-24 11:28 | 12.98502 | 80.16469 | 50 ft | 7 kts | 264° |
| 2026-04-24 11:28 | 12.98557 | 80.16398 | 50 ft | 10 kts | 330° |
| 2026-04-24 11:29 | 12.98601 | 80.16375 | 50 ft | 8 kts | 304° |
| 2026-04-24 11:29 | 12.98622 | 80.16295 | 49 ft | 15 kts | 329° |
| 2026-04-24 11:29 | 12.98679 | 80.16307 | 50 ft | 0 kts | 36° |
| 2026-04-24 11:42 | 12.98715 | 80.16334 | 50 ft | 19 kts | 39° |
| 2026-04-24 11:42 | 12.98831 | 80.16417 | 50 ft | 16 kts | 34° |
| 2026-04-24 11:42 | 12.98855 | 80.16465 | 50 ft | 0 kts | 73° |
| 2026-04-24 11:44 | 12.98910 | 80.16617 | 50 ft | 54 kts | 68° |
| 2026-04-24 11:44 | 12.99107 | 80.17122 | 85 ft | 90 kts | 71° |
| 2026-04-24 11:44 | 12.99339 | 80.17745 | 239 ft | 96 kts | 77° |
| 2026-04-24 11:44 | 12.99575 | 80.18383 | 523 ft | 96 kts | 77° |
| 2026-04-24 11:45 | 12.99813 | 80.19017 | 775 ft | 95 kts | 75° |
| 2026-04-24 11:45 | 13.00099 | 80.19620 | 1012 ft | 98 kts | 46° |
| 2026-04-24 11:45 | 13.00794 | 80.19783 | 1158 ft | 114 kts | 349° |
| 2026-04-24 11:45 | 13.01442 | 80.19345 | 1299 ft | 115 kts | 297° |
| 2026-04-24 11:46 | 13.01551 | 80.18600 | 1547 ft | 104 kts | 255° |
| 2026-04-24 11:46 | 13.01369 | 80.17894 | 1781 ft | 100 kts | 238° |
| 2026-04-24 11:46 | 13.01067 | 80.17274 | 2057 ft | 96 kts | 236° |
| 2026-04-24 11:46 | 13.01052 | 80.16573 | 2321 ft | 110 kts | 287° |
| 2026-04-24 11:47 | 13.01551 | 80.15930 | 2547 ft | 120 kts | 326° |
| 2026-04-24 11:47 | 13.02319 | 80.15642 | 2863 ft | 117 kts | 352° |
| 2026-04-24 11:47 | 13.03114 | 80.15512 | 3166 ft | 116 kts | 351° |
| 2026-04-24 11:47 | 13.03895 | 80.15350 | 3471 ft | 116 kts | 349° |
| 2026-04-24 11:48 | 13.04712 | 80.15173 | 3725 ft | 118 kts | 352° |
| 2026-04-24 11:48 | 13.05496 | 80.15051 | 4041 ft | 112 kts | 359° |
| 2026-04-24 11:48 | 13.06278 | 80.15061 | 4152 ft | 125 kts | 7° |
| 2026-04-24 11:48 | 13.07166 | 80.15305 | 4142 ft | 141 kts | 23° |
| 2026-04-24 11:49 | 13.08102 | 80.15670 | 4069 ft | 145 kts | 22° |
| 2026-04-24 11:49 | 13.09034 | 80.16023 | 4039 ft | 139 kts | 24° |
| 2026-04-24 11:49 | 13.09949 | 80.16378 | 3899 ft | 147 kts | 23° |
| 2026-04-24 11:49 | 13.10885 | 80.16736 | 3906 ft | 142 kts | 24° |
| 2026-04-24 11:50 | 13.11825 | 80.17042 | 3899 ft | 141 kts | 20° |
| 2026-04-24 11:50 | 13.12758 | 80.17270 | 3956 ft | 138 kts | 14° |
| 2026-04-24 11:50 | 13.13749 | 80.17397 | 3897 ft | 146 kts | 8° |
| 2026-04-24 11:50 | 13.14718 | 80.17450 | 3981 ft | 141 kts | 356° |
| 2026-04-24 11:51 | 13.15588 | 80.16935 | 3940 ft | 150 kts | 309° |
| 2026-04-24 11:51 | 13.15971 | 80.16016 | 4043 ft | 139 kts | 270° |
| 2026-04-24 11:51 | 13.15675 | 80.15130 | 4061 ft | 130 kts | 219° |
| 2026-04-24 11:51 | 13.14859 | 80.14815 | 4021 ft | 127 kts | 180° |
| 2026-04-24 11:52 | 13.13994 | 80.14967 | 4020 ft | 127 kts | 165° |
| 2026-04-24 11:52 | 13.13128 | 80.15153 | 4047 ft | 126 kts | 174° |
| 2026-04-24 11:52 | 13.12237 | 80.15109 | 3995 ft | 133 kts | 183° |
| 2026-04-24 11:52 | 13.11619 | 80.15110 | 3966 ft | 134 kts | 173° |
| 2026-04-24 11:53 | 13.10433 | 80.15297 | 4031 ft | 130 kts | 161° |
| 2026-04-24 11:53 | 13.09939 | 80.15644 | 4016 ft | 130 kts | 130° |
| 2026-04-24 11:53 | 13.09752 | 80.16507 | 4047 ft | 137 kts | 83° |
| 2026-04-24 11:53 | 13.10371 | 80.17282 | 3966 ft | 151 kts | 31° |
| 2026-04-24 11:54 | 13.11420 | 80.17351 | 3938 ft | 154 kts | 342° |
| 2026-04-24 11:54 | 13.12245 | 80.16734 | 4052 ft | 145 kts | 301° |
| 2026-04-24 11:54 | 13.12453 | 80.15769 | 4075 ft | 140 kts | 257° |
| 2026-04-24 11:54 | 13.11731 | 80.14757 | 4003 ft | 136 kts | 199° |
| 2026-04-24 11:55 | 13.11116 | 80.14726 | 3996 ft | 133 kts | 162° |
| 2026-04-24 11:55 | 13.10422 | 80.15329 | 3995 ft | 132 kts | 121° |
| 2026-04-24 11:55 | 13.10057 | 80.16190 | 4034 ft | 130 kts | 114° |
| 2026-04-24 11:55 | 13.09765 | 80.17085 | 4018 ft | 132 kts | 108° |
| 2026-04-24 11:56 | 13.09464 | 80.17927 | 4122 ft | 122 kts | 116° |
| 2026-04-24 11:56 | 13.09111 | 80.18719 | 4060 ft | 127 kts | 132° |
| 2026-04-24 11:56 | 13.08317 | 80.19118 | 3973 ft | 135 kts | 172° |
| 2026-04-24 11:56 | 13.07428 | 80.18846 | 3997 ft | 135 kts | 207° |
| 2026-04-24 11:57 | 13.06610 | 80.18357 | 4009 ft | 135 kts | 201° |
| 2026-04-24 11:57 | 13.05722 | 80.18141 | 4048 ft | 132 kts | 182° |
| 2026-04-24 11:57 | 13.04806 | 80.18085 | 4039 ft | 129 kts | 179° |
| 2026-04-24 11:57 | 13.03906 | 80.17913 | 3841 ft | 135 kts | 188° |
| 2026-04-24 11:58 | 13.02989 | 80.17711 | 3645 ft | 135 kts | 189° |
| 2026-04-24 11:58 | 13.02090 | 80.17419 | 3462 ft | 135 kts | 201° |
| 2026-04-24 11:58 | 13.01464 | 80.16772 | 3354 ft | 127 kts | 238° |
| 2026-04-24 11:58 | 13.01201 | 80.15933 | 3136 ft | 120 kts | 251° |
| 2026-04-24 11:59 | 13.01028 | 80.15115 | 2817 ft | 118 kts | 252° |
| 2026-04-24 11:59 | 13.00819 | 80.14233 | 2528 ft | 134 kts | 244° |
| 2026-04-24 11:59 | 13.00441 | 80.13346 | 2445 ft | 136 kts | 242° |
| 2026-04-24 11:59 | 13.00079 | 80.12425 | 2301 ft | 140 kts | 242° |
| 2026-04-24 12:00 | 12.99728 | 80.11497 | 2196 ft | 139 kts | 242° |
| 2026-04-24 12:00 | 12.99381 | 80.10549 | 1988 ft | 144 kts | 244° |
| 2026-04-24 12:00 | 12.99047 | 80.09577 | 1762 ft | 142 kts | 243° |
| 2026-04-24 12:00 | 12.98479 | 80.08924 | 1624 ft | 112 kts | 193° |
| 2026-04-24 12:01 | 12.97767 | 80.08952 | 1498 ft | 102 kts | 155° |
| 2026-04-24 12:01 | 12.97267 | 80.09429 | 1394 ft | 98 kts | 121° |
| 2026-04-24 12:01 | 12.97046 | 80.10088 | 1328 ft | 100 kts | 98° |
| 2026-04-24 12:01 | 12.97190 | 80.10768 | 1286 ft | 95 kts | 69° |
| 2026-04-24 12:02 | 12.97500 | 80.11391 | 1082 ft | 101 kts | 71° |
| 2026-04-24 12:02 | 12.97800 | 80.12037 | 948 ft | 101 kts | 77° |
| 2026-04-24 12:02 | 12.98030 | 80.12716 | 801 ft | 105 kts | 80° |
| 2026-04-24 12:02 | 12.98226 | 80.13453 | 625 ft | 102 kts | 97° |
| 2026-04-24 12:03 | 12.98152 | 80.14167 | 477 ft | 103 kts | 102° |
| 2026-04-24 12:03 | 12.98274 | 80.14920 | 217 ft | 111 kts | 74° |
| 2026-04-24 12:03 | 12.98537 | 80.15620 | 52 ft | 93 kts | 76° |
| 2026-04-24 12:03 | 12.98733 | 80.16143 | 51 ft | 66 kts | 74° |
| 2026-04-24 12:04 | 12.98816 | 80.16401 | 51 ft | 12 kts | 136° |
| 2026-04-24 12:04 | 12.98775 | 80.16384 | 51 ft | 6 kts | 225° |
| 2026-04-24 12:04 | 12.98739 | 80.16355 | 50 ft | 7 kts | 213° |
| 2026-04-24 12:04 | 12.98696 | 80.16321 | 50 ft | 10 kts | 215° |
| 2026-04-24 12:05 | 12.98614 | 80.16261 | 49 ft | 17 kts | 218° |
| 2026-04-24 12:05 | 12.98559 | 80.16211 | 49 ft | 11 kts | 237° |
| 2026-04-24 12:05 | 12.98512 | 80.16130 | 49 ft | 13 kts | 183° |
| 2026-04-24 12:05 | 12.98447 | 80.16151 | 50 ft | 7 kts | 157° |
| 2026-04-24 12:06 | 12.98433 | 80.16157 | 50 ft | 0 kts | 159° |
| 2026-04-24 12:07 | 12.98429 | 80.16158 | 50 ft | 2 kts | 160° |
| 2026-04-24 12:07 | 12.98400 | 80.16169 | 50 ft | 6 kts | 153° |
| 2026-04-24 12:07 | 12.98391 | 80.16221 | 50 ft | 12 kts | 73° |
| 2026-04-24 12:08 | 12.98427 | 80.16227 | 50 ft | 10 kts | 321° |
| 2026-04-24 12:08 | 12.98467 | 80.16213 | 50 ft | 0 kts | 342° |